sensor_id;sensor_type;location;lat;lon;timestamp;P1;durP1;ratioP1;P2;durP2;ratioP2
53287;SDS011;39172;45.550;12.072;2022-09-24T00:03:35;1.58;;;1.17;;
53287;SDS011;39172;45.550;12.072;2022-09-24T00:09:37;1.95;;;1.35;;
53287;SDS011;39172;45.550;12.072;2022-09-24T00:15:41;2.00;;;1.33;;
53287;SDS011;39172;45.550;12.072;2022-09-24T00:21:43;2.03;;;1.10;;
53287;SDS011;39172;45.550;12.072;2022-09-24T00:27:44;1.50;;;0.80;;
53287;SDS011;39172;45.550;12.072;2022-09-24T00:33:45;1.40;;;1.00;;
53287;SDS011;39172;45.550;12.072;2022-09-24T00:39:46;1.02;;;0.80;;
53287;SDS011;39172;45.550;12.072;2022-09-24T00:45:46;1.25;;;0.80;;
53287;SDS011;39172;45.550;12.072;2022-09-24T00:51:49;1.60;;;1.00;;
53287;SDS011;39172;45.550;12.072;2022-09-24T00:57:55;1.38;;;0.90;;
53287;SDS011;39172;45.550;12.072;2022-09-24T01:03:57;1.50;;;1.10;;
53287;SDS011;39172;45.550;12.072;2022-09-24T01:09:58;1.75;;;1.20;;
53287;SDS011;39172;45.550;12.072;2022-09-24T01:22:48;1.40;;;1.23;;
53287;SDS011;39172;45.550;12.072;2022-09-24T01:35:12;1.40;;;1.00;;
53287;SDS011;39172;45.550;12.072;2022-09-24T01:41:15;2.05;;;0.90;;
53287;SDS011;39172;45.550;12.072;2022-09-24T01:47:19;1.10;;;0.90;;
53287;SDS011;39172;45.550;12.072;2022-09-24T01:53:23;1.00;;;0.70;;
53287;SDS011;39172;45.550;12.072;2022-09-24T01:59:31;0.95;;;0.70;;
53287;SDS011;39172;45.550;12.072;2022-09-24T02:05:37;1.00;;;0.60;;
53287;SDS011;39172;45.550;12.072;2022-09-24T02:11:38;1.88;;;1.00;;
53287;SDS011;39172;45.550;12.072;2022-09-24T02:17:40;2.38;;;1.00;;
53287;SDS011;39172;45.550;12.072;2022-09-24T02:23:56;1.67;;;1.30;;
53287;SDS011;39172;45.550;12.072;2022-09-24T02:29:57;1.17;;;0.88;;
53287;SDS011;39172;45.550;12.072;2022-09-24T02:35:59;1.95;;;1.40;;
53287;SDS011;39172;45.550;12.072;2022-09-24T02:42:01;1.77;;;1.20;;
53287;SDS011;39172;45.550;12.072;2022-09-24T02:48:03;1.40;;;0.90;;
53287;SDS011;39172;45.550;12.072;2022-09-24T02:54:04;1.17;;;1.00;;
53287;SDS011;39172;45.550;12.072;2022-09-24T03:00:05;1.27;;;0.90;;
53287;SDS011;39172;45.550;12.072;2022-09-24T03:06:06;1.75;;;1.10;;
53287;SDS011;39172;45.550;12.072;2022-09-24T03:12:07;2.85;;;2.00;;
53287;SDS011;39172;45.550;12.072;2022-09-24T03:18:09;3.17;;;2.20;;
53287;SDS011;39172;45.550;12.072;2022-09-24T03:24:09;2.67;;;1.95;;
53287;SDS011;39172;45.550;12.072;2022-09-24T03:30:10;3.42;;;2.38;;
53287;SDS011;39172;45.550;12.072;2022-09-24T03:36:30;4.40;;;2.90;;
53287;SDS011;39172;45.550;12.072;2022-09-24T03:42:31;3.88;;;2.78;;
53287;SDS011;39172;45.550;12.072;2022-09-24T03:48:34;3.42;;;2.42;;
53287;SDS011;39172;45.550;12.072;2022-09-24T03:54:35;2.95;;;2.10;;
53287;SDS011;39172;45.550;12.072;2022-09-24T04:00:36;3.72;;;2.30;;
53287;SDS011;39172;45.550;12.072;2022-09-24T04:06:59;3.45;;;2.80;;
53287;SDS011;39172;45.550;12.072;2022-09-24T04:13:00;3.30;;;2.35;;
53287;SDS011;39172;45.550;12.072;2022-09-24T04:19:01;2.90;;;2.38;;
53287;SDS011;39172;45.550;12.072;2022-09-24T04:25:01;3.00;;;2.30;;
53287;SDS011;39172;45.550;12.072;2022-09-24T04:31:03;2.67;;;2.00;;
53287;SDS011;39172;45.550;12.072;2022-09-24T04:37:07;3.28;;;2.60;;
53287;SDS011;39172;45.550;12.072;2022-09-24T04:43:09;2.38;;;2.10;;
53287;SDS011;39172;45.550;12.072;2022-09-24T04:49:10;3.08;;;2.50;;
53287;SDS011;39172;45.550;12.072;2022-09-24T04:55:11;3.05;;;2.42;;
53287;SDS011;39172;45.550;12.072;2022-09-24T05:01:12;3.72;;;2.72;;
53287;SDS011;39172;45.550;12.072;2022-09-24T05:07:13;4.63;;;3.53;;
53287;SDS011;39172;45.550;12.072;2022-09-24T05:13:14;5.22;;;4.10;;
53287;SDS011;39172;45.550;12.072;2022-09-24T05:19:16;5.20;;;3.90;;
53287;SDS011;39172;45.550;12.072;2022-09-24T05:25:17;3.97;;;3.15;;
53287;SDS011;39172;45.550;12.072;2022-09-24T05:31:19;5.32;;;3.75;;
53287;SDS011;39172;45.550;12.072;2022-09-24T05:37:21;6.03;;;3.90;;
53287;SDS011;39172;45.550;12.072;2022-09-24T05:43:22;5.50;;;3.15;;
53287;SDS011;39172;45.550;12.072;2022-09-24T05:49:27;4.32;;;3.30;;
53287;SDS011;39172;45.550;12.072;2022-09-24T05:55:28;5.68;;;3.70;;
53287;SDS011;39172;45.550;12.072;2022-09-24T06:01:29;4.40;;;3.50;;
53287;SDS011;39172;45.550;12.072;2022-09-24T06:07:30;4.97;;;3.25;;
53287;SDS011;39172;45.550;12.072;2022-09-24T06:13:31;6.25;;;3.50;;
53287;SDS011;39172;45.550;12.072;2022-09-24T06:19:34;4.95;;;3.50;;
53287;SDS011;39172;45.550;12.072;2022-09-24T06:25:35;3.85;;;3.15;;
53287;SDS011;39172;45.550;12.072;2022-09-24T06:31:36;3.80;;;2.75;;
53287;SDS011;39172;45.550;12.072;2022-09-24T06:37:37;4.07;;;2.97;;
53287;SDS011;39172;45.550;12.072;2022-09-24T06:43:37;4.20;;;3.08;;
53287;SDS011;39172;45.550;12.072;2022-09-24T06:49:39;4.30;;;2.90;;
53287;SDS011;39172;45.550;12.072;2022-09-24T06:55:41;4.00;;;2.95;;
53287;SDS011;39172;45.550;12.072;2022-09-24T07:01:41;4.47;;;3.28;;
53287;SDS011;39172;45.550;12.072;2022-09-24T07:07:42;4.68;;;3.17;;
53287;SDS011;39172;45.550;12.072;2022-09-24T07:13:43;4.43;;;3.10;;
53287;SDS011;39172;45.550;12.072;2022-09-24T07:19:44;3.92;;;3.13;;
53287;SDS011;39172;45.550;12.072;2022-09-24T07:25:45;4.10;;;3.00;;
53287;SDS011;39172;45.550;12.072;2022-09-24T07:31:46;3.05;;;2.67;;
53287;SDS011;39172;45.550;12.072;2022-09-24T07:37:48;4.15;;;3.08;;
53287;SDS011;39172;45.550;12.072;2022-09-24T07:43:49;5.13;;;3.90;;
53287;SDS011;39172;45.550;12.072;2022-09-24T07:49:50;4.88;;;3.20;;
53287;SDS011;39172;45.550;12.072;2022-09-24T07:55:51;3.90;;;2.85;;
53287;SDS011;39172;45.550;12.072;2022-09-24T08:01:52;4.65;;;3.15;;
53287;SDS011;39172;45.550;12.072;2022-09-24T08:07:54;4.25;;;3.03;;
53287;SDS011;39172;45.550;12.072;2022-09-24T08:13:55;5.63;;;3.50;;
53287;SDS011;39172;45.550;12.072;2022-09-24T08:19:57;5.65;;;3.97;;
53287;SDS011;39172;45.550;12.072;2022-09-24T08:25:58;6.72;;;4.57;;
53287;SDS011;39172;45.550;12.072;2022-09-24T08:32:00;4.00;;;3.00;;
53287;SDS011;39172;45.550;12.072;2022-09-24T08:38:01;4.85;;;3.30;;
53287;SDS011;39172;45.550;12.072;2022-09-24T08:44:04;3.15;;;2.10;;
53287;SDS011;39172;45.550;12.072;2022-09-24T08:56:11;4.63;;;2.85;;
53287;SDS011;39172;45.550;12.072;2022-09-24T09:08:50;3.20;;;2.00;;
53287;SDS011;39172;45.550;12.072;2022-09-24T09:20:50;3.00;;;1.90;;
53287;SDS011;39172;45.550;12.072;2022-09-24T09:26:55;2.35;;;1.65;;
53287;SDS011;39172;45.550;12.072;2022-09-24T09:45:18;1.92;;;1.40;;
53287;SDS011;39172;45.550;12.072;2022-09-24T09:51:24;2.13;;;1.40;;
53287;SDS011;39172;45.550;12.072;2022-09-24T09:57:25;1.75;;;1.20;;
53287;SDS011;39172;45.550;12.072;2022-09-24T10:03:27;2.90;;;1.30;;
53287;SDS011;39172;45.550;12.072;2022-09-24T10:09:29;1.55;;;0.90;;
53287;SDS011;39172;45.550;12.072;2022-09-24T10:15:30;1.33;;;1.05;;
53287;SDS011;39172;45.550;12.072;2022-09-24T10:21:32;3.42;;;1.13;;
53287;SDS011;39172;45.550;12.072;2022-09-24T10:27:36;1.80;;;1.10;;
53287;SDS011;39172;45.550;12.072;2022-09-24T10:33:38;3.03;;;2.03;;
53287;SDS011;39172;45.550;12.072;2022-09-24T10:39:39;3.10;;;1.80;;
53287;SDS011;39172;45.550;12.072;2022-09-24T10:58:43;2.20;;;1.60;;
53287;SDS011;39172;45.550;12.072;2022-09-24T11:11:25;1.88;;;1.30;;
53287;SDS011;39172;45.550;12.072;2022-09-24T11:17:31;1.98;;;1.33;;
53287;SDS011;39172;45.550;12.072;2022-09-24T11:42:00;2.13;;;1.20;;
53287;SDS011;39172;45.550;12.072;2022-09-24T12:00:15;3.30;;;2.33;;
53287;SDS011;39172;45.550;12.072;2022-09-24T12:06:48;2.60;;;1.90;;
53287;SDS011;39172;45.550;12.072;2022-09-24T12:12:53;3.58;;;2.08;;
53287;SDS011;39172;45.550;12.072;2022-09-24T12:18:59;3.33;;;1.77;;
53287;SDS011;39172;45.550;12.072;2022-09-24T12:25:02;2.30;;;1.30;;
53287;SDS011;39172;45.550;12.072;2022-09-24T12:31:14;2.00;;;1.30;;
53287;SDS011;39172;45.550;12.072;2022-09-24T12:37:35;2.15;;;1.50;;
53287;SDS011;39172;45.550;12.072;2022-09-24T12:49:39;1.63;;;1.27;;
53287;SDS011;39172;45.550;12.072;2022-09-24T12:55:43;2.70;;;1.50;;
53287;SDS011;39172;45.550;12.072;2022-09-24T13:01:44;2.38;;;1.42;;
53287;SDS011;39172;45.550;12.072;2022-09-24T13:13:59;1.42;;;1.10;;
53287;SDS011;39172;45.550;12.072;2022-09-24T13:20:33;1.75;;;1.00;;
53287;SDS011;39172;45.550;12.072;2022-09-24T13:26:31;1.35;;;1.00;;
53287;SDS011;39172;45.550;12.072;2022-09-24T13:32:35;2.13;;;1.60;;
53287;SDS011;39172;45.550;12.072;2022-09-24T13:38:37;3.17;;;1.30;;
53287;SDS011;39172;45.550;12.072;2022-09-24T13:44:42;1.92;;;1.20;;
53287;SDS011;39172;45.550;12.072;2022-09-24T13:50:44;2.45;;;1.58;;
53287;SDS011;39172;45.550;12.072;2022-09-24T13:56:57;2.30;;;1.50;;
53287;SDS011;39172;45.550;12.072;2022-09-24T14:03:17;2.25;;;1.40;;
53287;SDS011;39172;45.550;12.072;2022-09-24T14:09:30;2.67;;;1.40;;
53287;SDS011;39172;45.550;12.072;2022-09-24T14:15:31;1.83;;;1.15;;
53287;SDS011;39172;45.550;12.072;2022-09-24T14:21:37;1.85;;;1.20;;
53287;SDS011;39172;45.550;12.072;2022-09-24T14:27:41;2.55;;;1.20;;
53287;SDS011;39172;45.550;12.072;2022-09-24T14:33:42;2.28;;;1.58;;
53287;SDS011;39172;45.550;12.072;2022-09-24T14:39:44;2.28;;;1.45;;
53287;SDS011;39172;45.550;12.072;2022-09-24T14:45:46;1.88;;;1.40;;
53287;SDS011;39172;45.550;12.072;2022-09-24T14:57:58;1.30;;;1.00;;
53287;SDS011;39172;45.550;12.072;2022-09-24T15:04:05;1.70;;;0.95;;
53287;SDS011;39172;45.550;12.072;2022-09-24T15:10:16;1.70;;;0.98;;
53287;SDS011;39172;45.550;12.072;2022-09-24T15:16:19;1.00;;;0.82;;
53287;SDS011;39172;45.550;12.072;2022-09-24T15:22:21;2.88;;;1.65;;
53287;SDS011;39172;45.550;12.072;2022-09-24T15:28:22;4.00;;;2.22;;
53287;SDS011;39172;45.550;12.072;2022-09-24T15:34:26;2.40;;;1.73;;
53287;SDS011;39172;45.550;12.072;2022-09-24T15:40:28;2.88;;;1.95;;
53287;SDS011;39172;45.550;12.072;2022-09-24T15:46:33;2.90;;;1.60;;
53287;SDS011;39172;45.550;12.072;2022-09-24T15:52:34;2.80;;;1.95;;
53287;SDS011;39172;45.550;12.072;2022-09-24T15:58:39;3.08;;;2.00;;
53287;SDS011;39172;45.550;12.072;2022-09-24T16:04:40;3.42;;;2.28;;
53287;SDS011;39172;45.550;12.072;2022-09-24T16:10:41;3.08;;;2.30;;
53287;SDS011;39172;45.550;12.072;2022-09-24T16:16:42;3.50;;;2.10;;
53287;SDS011;39172;45.550;12.072;2022-09-24T16:22:43;2.28;;;1.77;;
53287;SDS011;39172;45.550;12.072;2022-09-24T16:28:44;2.13;;;1.70;;
53287;SDS011;39172;45.550;12.072;2022-09-24T16:34:46;2.50;;;1.80;;
53287;SDS011;39172;45.550;12.072;2022-09-24T16:40:47;2.75;;;1.95;;
53287;SDS011;39172;45.550;12.072;2022-09-24T16:46:48;3.15;;;2.10;;
53287;SDS011;39172;45.550;12.072;2022-09-24T16:52:49;2.53;;;1.92;;
53287;SDS011;39172;45.550;12.072;2022-09-24T16:58:54;2.55;;;2.00;;
53287;SDS011;39172;45.550;12.072;2022-09-24T17:04:55;2.85;;;2.30;;
53287;SDS011;39172;45.550;12.072;2022-09-24T17:10:56;2.40;;;1.80;;
53287;SDS011;39172;45.550;12.072;2022-09-24T17:16:57;2.00;;;1.40;;
53287;SDS011;39172;45.550;12.072;2022-09-24T17:22:58;2.40;;;1.40;;
53287;SDS011;39172;45.550;12.072;2022-09-24T17:28:59;2.30;;;1.70;;
53287;SDS011;39172;45.550;12.072;2022-09-24T17:35:00;3.45;;;2.30;;
53287;SDS011;39172;45.550;12.072;2022-09-24T17:41:08;2.78;;;2.08;;
53287;SDS011;39172;45.550;12.072;2022-09-24T17:47:09;2.90;;;2.20;;
53287;SDS011;39172;45.550;12.072;2022-09-24T17:53:10;3.63;;;2.42;;
53287;SDS011;39172;45.550;12.072;2022-09-24T17:59:12;2.22;;;1.88;;
53287;SDS011;39172;45.550;12.072;2022-09-24T18:05:13;3.58;;;2.25;;
53287;SDS011;39172;45.550;12.072;2022-09-24T18:11:18;4.47;;;2.97;;
53287;SDS011;39172;45.550;12.072;2022-09-24T18:17:19;4.65;;;2.92;;
53287;SDS011;39172;45.550;12.072;2022-09-24T18:23:20;2.78;;;2.20;;
53287;SDS011;39172;45.550;12.072;2022-09-24T18:29:21;4.40;;;2.38;;
53287;SDS011;39172;45.550;12.072;2022-09-24T18:35:22;3.22;;;2.20;;
53287;SDS011;39172;45.550;12.072;2022-09-24T18:41:24;3.25;;;2.15;;
53287;SDS011;39172;45.550;12.072;2022-09-24T18:47:25;3.47;;;2.85;;
53287;SDS011;39172;45.550;12.072;2022-09-24T18:53:26;3.30;;;2.20;;
53287;SDS011;39172;45.550;12.072;2022-09-24T18:59:27;3.13;;;2.22;;
53287;SDS011;39172;45.550;12.072;2022-09-24T19:05:33;3.70;;;2.80;;
53287;SDS011;39172;45.550;12.072;2022-09-24T19:11:34;4.22;;;2.70;;
53287;SDS011;39172;45.550;12.072;2022-09-24T19:17:35;3.25;;;2.40;;
53287;SDS011;39172;45.550;12.072;2022-09-24T19:23:40;3.10;;;2.45;;
53287;SDS011;39172;45.550;12.072;2022-09-24T19:29:42;3.70;;;2.75;;
53287;SDS011;39172;45.550;12.072;2022-09-24T19:41:54;2.83;;;2.22;;
53287;SDS011;39172;45.550;12.072;2022-09-24T19:47:55;3.00;;;2.40;;
53287;SDS011;39172;45.550;12.072;2022-09-24T19:53:57;3.38;;;2.28;;
53287;SDS011;39172;45.550;12.072;2022-09-24T19:59:58;3.38;;;2.17;;
53287;SDS011;39172;45.550;12.072;2022-09-24T20:05:59;2.65;;;2.05;;
53287;SDS011;39172;45.550;12.072;2022-09-24T20:12:05;4.00;;;2.30;;
53287;SDS011;39172;45.550;12.072;2022-09-24T20:18:07;2.50;;;2.08;;
53287;SDS011;39172;45.550;12.072;2022-09-24T20:24:09;5.18;;;2.55;;
53287;SDS011;39172;45.550;12.072;2022-09-24T20:30:11;3.95;;;2.75;;
53287;SDS011;39172;45.550;12.072;2022-09-24T20:36:12;4.78;;;3.35;;
53287;SDS011;39172;45.550;12.072;2022-09-24T20:42:13;3.65;;;2.70;;
53287;SDS011;39172;45.550;12.072;2022-09-24T20:48:15;4.40;;;3.13;;
53287;SDS011;39172;45.550;12.072;2022-09-24T20:54:16;3.92;;;2.80;;
53287;SDS011;39172;45.550;12.072;2022-09-24T21:00:17;2.88;;;2.40;;
53287;SDS011;39172;45.550;12.072;2022-09-24T21:06:18;3.17;;;2.75;;
53287;SDS011;39172;45.550;12.072;2022-09-24T21:12:22;3.40;;;2.50;;
53287;SDS011;39172;45.550;12.072;2022-09-24T21:18:24;3.63;;;2.60;;
53287;SDS011;39172;45.550;12.072;2022-09-24T21:24:25;3.80;;;3.00;;
53287;SDS011;39172;45.550;12.072;2022-09-24T21:30:26;5.63;;;3.58;;
53287;SDS011;39172;45.550;12.072;2022-09-24T21:36:28;6.03;;;4.15;;
53287;SDS011;39172;45.550;12.072;2022-09-24T21:42:29;6.50;;;4.18;;
53287;SDS011;39172;45.550;12.072;2022-09-24T21:48:32;5.15;;;3.55;;
53287;SDS011;39172;45.550;12.072;2022-09-24T21:54:33;4.43;;;3.08;;
53287;SDS011;39172;45.550;12.072;2022-09-24T22:00:34;2.92;;;2.20;;
53287;SDS011;39172;45.550;12.072;2022-09-24T22:06:35;3.92;;;2.80;;
53287;SDS011;39172;45.550;12.072;2022-09-24T22:12:36;3.17;;;2.35;;
53287;SDS011;39172;45.550;12.072;2022-09-24T22:18:37;3.95;;;2.80;;
53287;SDS011;39172;45.550;12.072;2022-09-24T22:24:38;3.45;;;2.65;;
53287;SDS011;39172;45.550;12.072;2022-09-24T22:30:40;3.20;;;2.50;;
53287;SDS011;39172;45.550;12.072;2022-09-24T22:36:41;3.83;;;2.42;;
53287;SDS011;39172;45.550;12.072;2022-09-24T22:42:42;3.90;;;2.67;;
53287;SDS011;39172;45.550;12.072;2022-09-24T22:48:43;4.63;;;3.42;;
53287;SDS011;39172;45.550;12.072;2022-09-24T22:54:46;5.28;;;3.70;;
53287;SDS011;39172;45.550;12.072;2022-09-24T23:00:47;4.47;;;3.25;;
53287;SDS011;39172;45.550;12.072;2022-09-24T23:06:48;5.53;;;3.53;;
53287;SDS011;39172;45.550;12.072;2022-09-24T23:12:49;4.63;;;3.35;;
53287;SDS011;39172;45.550;12.072;2022-09-24T23:18:51;4.50;;;3.53;;
53287;SDS011;39172;45.550;12.072;2022-09-24T23:24:53;4.50;;;3.60;;
53287;SDS011;39172;45.550;12.072;2022-09-24T23:30:57;4.75;;;3.10;;
53287;SDS011;39172;45.550;12.072;2022-09-24T23:36:58;3.05;;;2.40;;
53287;SDS011;39172;45.550;12.072;2022-09-24T23:42:59;3.60;;;2.72;;
53287;SDS011;39172;45.550;12.072;2022-09-24T23:49:02;4.50;;;3.00;;
53287;SDS011;39172;45.550;12.072;2022-09-24T23:55:03;4.60;;;3.17;;
